sensor_id;sensor_type;location;lat;lon;timestamp;pressure;altitude;pressure_sealevel;temperature
69545;BMP180;56766;52.260;20.746;2024-03-02T00:01:31;100097.80;;;6.50
69545;BMP180;56766;52.260;20.746;2024-03-02T00:03:58;100095.20;;;6.50
69545;BMP180;56766;52.260;20.746;2024-03-02T00:06:25;100100.00;;;6.50
69545;BMP180;56766;52.260;20.746;2024-03-02T00:08:58;100102.20;;;6.50
69545;BMP180;56766;52.260;20.746;2024-03-02T00:11:25;100090.80;;;6.50
69545;BMP180;56766;52.260;20.746;2024-03-02T00:13:53;100088.20;;;6.50
69545;BMP180;56766;52.260;20.746;2024-03-02T00:16:20;100085.40;;;6.52
69545;BMP180;56766;52.260;20.746;2024-03-02T00:18:47;100087.00;;;6.58
69545;BMP180;56766;52.260;20.746;2024-03-02T00:21:14;100090.00;;;6.60
69545;BMP180;56766;52.260;20.746;2024-03-02T00:23:43;100087.60;;;6.60
69545;BMP180;56766;52.260;20.746;2024-03-02T00:26:11;100080.40;;;6.54
69545;BMP180;56766;52.260;20.746;2024-03-02T00:28:39;100082.40;;;6.50
69545;BMP180;56766;52.260;20.746;2024-03-02T00:31:09;100082.60;;;6.50
69545;BMP180;56766;52.260;20.746;2024-03-02T00:33:48;100081.60;;;6.50
69545;BMP180;56766;52.260;20.746;2024-03-02T00:36:22;100074.80;;;6.50
69545;BMP180;56766;52.260;20.746;2024-03-02T00:38:54;100077.00;;;6.50
69545;BMP180;56766;52.260;20.746;2024-03-02T00:41:26;100075.40;;;6.50
69545;BMP180;56766;52.260;20.746;2024-03-02T00:46:33;100078.40;;;6.50
69545;BMP180;56766;52.260;20.746;2024-03-02T00:49:03;100084.00;;;6.50
69545;BMP180;56766;52.260;20.746;2024-03-02T00:51:34;100083.60;;;6.50
69545;BMP180;56766;52.260;20.746;2024-03-02T00:54:05;100087.20;;;6.46
69545;BMP180;56766;52.260;20.746;2024-03-02T00:56:34;100095.60;;;6.40
69545;BMP180;56766;52.260;20.746;2024-03-02T00:59:01;100090.20;;;6.40
69545;BMP180;56766;52.260;20.746;2024-03-02T01:01:28;100084.80;;;6.40
69545;BMP180;56766;52.260;20.746;2024-03-02T01:03:54;100086.80;;;6.40
69545;BMP180;56766;52.260;20.746;2024-03-02T01:06:21;100086.80;;;6.40
69545;BMP180;56766;52.260;20.746;2024-03-02T01:08:49;100080.60;;;6.40
69545;BMP180;56766;52.260;20.746;2024-03-02T01:11:19;100073.60;;;6.30
69545;BMP180;56766;52.260;20.746;2024-03-02T01:13:48;100067.00;;;6.30
69545;BMP180;56766;52.260;20.746;2024-03-02T01:16:15;100067.60;;;6.26
69545;BMP180;56766;52.260;20.746;2024-03-02T01:18:42;100074.00;;;6.20
69545;BMP180;56766;52.260;20.746;2024-03-02T01:21:08;100067.60;;;6.20
69545;BMP180;56766;52.260;20.746;2024-03-02T01:23:35;100071.60;;;6.10
69545;BMP180;56766;52.260;20.746;2024-03-02T01:26:02;100071.40;;;6.10
69545;BMP180;56766;52.260;20.746;2024-03-02T01:28:29;100071.40;;;6.10
69545;BMP180;56766;52.260;20.746;2024-03-02T01:30:56;100068.00;;;6.08
69545;BMP180;56766;52.260;20.746;2024-03-02T01:33:22;100066.80;;;6.04
69545;BMP180;56766;52.260;20.746;2024-03-02T01:35:49;100064.20;;;6.00
69545;BMP180;56766;52.260;20.746;2024-03-02T01:38:16;100062.80;;;6.00
69545;BMP180;56766;52.260;20.746;2024-03-02T01:40:42;100058.00;;;6.00
69545;BMP180;56766;52.260;20.746;2024-03-02T01:43:11;100053.80;;;6.00
69545;BMP180;56766;52.260;20.746;2024-03-02T01:45:38;100042.80;;;6.00
69545;BMP180;56766;52.260;20.746;2024-03-02T01:48:06;100046.20;;;5.94
69545;BMP180;56766;52.260;20.746;2024-03-02T01:50:34;100049.60;;;5.90
69545;BMP180;56766;52.260;20.746;2024-03-02T01:53:01;100049.40;;;5.90
69545;BMP180;56766;52.260;20.746;2024-03-02T01:55:31;100046.40;;;5.90
69545;BMP180;56766;52.260;20.746;2024-03-02T01:57:58;100046.00;;;5.90
69545;BMP180;56766;52.260;20.746;2024-03-02T02:00:25;100041.40;;;5.90
69545;BMP180;56766;52.260;20.746;2024-03-02T02:02:53;100038.20;;;5.88
69545;BMP180;56766;52.260;20.746;2024-03-02T02:05:21;100042.60;;;5.80
69545;BMP180;56766;52.260;20.746;2024-03-02T02:07:48;100038.40;;;5.80
69545;BMP180;56766;52.260;20.746;2024-03-02T02:10:15;100040.60;;;5.80
69545;BMP180;56766;52.260;20.746;2024-03-02T02:12:42;100040.60;;;5.80
69545;BMP180;56766;52.260;20.746;2024-03-02T02:15:27;100040.80;;;5.80
69545;BMP180;56766;52.260;20.746;2024-03-02T02:17:56;100039.00;;;5.80
69545;BMP180;56766;52.260;20.746;2024-03-02T02:20:25;100047.00;;;5.80
69545;BMP180;56766;52.260;20.746;2024-03-02T02:23:03;100047.20;;;5.80
69545;BMP180;56766;52.260;20.746;2024-03-02T02:25:31;100043.40;;;5.80
69545;BMP180;56766;52.260;20.746;2024-03-02T02:27:58;100038.00;;;5.84
69545;BMP180;56766;52.260;20.746;2024-03-02T02:30:30;100039.60;;;5.90
69545;BMP180;56766;52.260;20.746;2024-03-02T02:32:58;100036.40;;;5.90
69545;BMP180;56766;52.260;20.746;2024-03-02T02:35:25;100033.40;;;5.90
69545;BMP180;56766;52.260;20.746;2024-03-02T02:37:55;100031.60;;;5.90
69545;BMP180;56766;52.260;20.746;2024-03-02T02:40:22;100031.40;;;5.94
69545;BMP180;56766;52.260;20.746;2024-03-02T02:42:49;100032.60;;;5.98
69545;BMP180;56766;52.260;20.746;2024-03-02T02:45:18;100024.60;;;6.00
69545;BMP180;56766;52.260;20.746;2024-03-02T02:47:45;100031.00;;;5.98
69545;BMP180;56766;52.260;20.746;2024-03-02T02:50:12;100025.60;;;5.96
69545;BMP180;56766;52.260;20.746;2024-03-02T02:52:41;100023.20;;;5.90
69545;BMP180;56766;52.260;20.746;2024-03-02T02:55:12;100025.20;;;5.92
69545;BMP180;56766;52.260;20.746;2024-03-02T02:57:41;100027.60;;;5.96
69545;BMP180;56766;52.260;20.746;2024-03-02T03:00:12;100023.60;;;5.92
69545;BMP180;56766;52.260;20.746;2024-03-02T03:02:45;100028.20;;;6.00
69545;BMP180;56766;52.260;20.746;2024-03-02T03:05:15;100021.20;;;6.00
69545;BMP180;56766;52.260;20.746;2024-03-02T03:07:42;100011.40;;;6.00
69545;BMP180;56766;52.260;20.746;2024-03-02T03:10:11;100018.80;;;6.00
69545;BMP180;56766;52.260;20.746;2024-03-02T03:12:38;100018.60;;;6.00
69545;BMP180;56766;52.260;20.746;2024-03-02T03:15:05;100014.80;;;6.00
69545;BMP180;56766;52.260;20.746;2024-03-02T03:17:33;100015.40;;;6.08
69545;BMP180;56766;52.260;20.746;2024-03-02T03:20:01;100017.60;;;6.10
69545;BMP180;56766;52.260;20.746;2024-03-02T03:22:28;100014.40;;;6.10
69545;BMP180;56766;52.260;20.746;2024-03-02T03:24:54;100015.60;;;6.10
69545;BMP180;56766;52.260;20.746;2024-03-02T03:27:21;100018.20;;;6.10
69545;BMP180;56766;52.260;20.746;2024-03-02T03:29:48;100017.20;;;6.10
69545;BMP180;56766;52.260;20.746;2024-03-02T03:32:15;100012.40;;;6.10
69545;BMP180;56766;52.260;20.746;2024-03-02T03:34:43;100012.20;;;6.10
69545;BMP180;56766;52.260;20.746;2024-03-02T03:37:10;100012.00;;;6.10
69545;BMP180;56766;52.260;20.746;2024-03-02T03:39:37;100003.20;;;6.10
69545;BMP180;56766;52.260;20.746;2024-03-02T03:42:04;100004.20;;;6.10
69545;BMP180;56766;52.260;20.746;2024-03-02T03:44:31;100010.80;;;6.10
69545;BMP180;56766;52.260;20.746;2024-03-02T03:46:57;100007.60;;;6.08
69545;BMP180;56766;52.260;20.746;2024-03-02T03:49:24;100008.80;;;6.00
69545;BMP180;56766;52.260;20.746;2024-03-02T03:51:51;100012.40;;;6.00
69545;BMP180;56766;52.260;20.746;2024-03-02T03:54:17;100009.60;;;6.00
69545;BMP180;56766;52.260;20.746;2024-03-02T03:56:44;100004.00;;;5.90
69545;BMP180;56766;52.260;20.746;2024-03-02T03:59:11;100007.00;;;5.90
69545;BMP180;56766;52.260;20.746;2024-03-02T04:01:38;100001.40;;;5.90
69545;BMP180;56766;52.260;20.746;2024-03-02T04:04:05;100001.00;;;5.80
69545;BMP180;56766;52.260;20.746;2024-03-02T04:06:32;100000.40;;;5.80
69545;BMP180;56766;52.260;20.746;2024-03-02T04:08:58;100007.20;;;5.80
69545;BMP180;56766;52.260;20.746;2024-03-02T04:11:25;100012.40;;;5.70
69545;BMP180;56766;52.260;20.746;2024-03-02T04:13:52;100008.40;;;5.68
69545;BMP180;56766;52.260;20.746;2024-03-02T04:16:19;100015.00;;;5.60
69545;BMP180;56766;52.260;20.746;2024-03-02T04:18:45;100024.40;;;5.60
69545;BMP180;56766;52.260;20.746;2024-03-02T04:21:12;100024.80;;;5.60
69545;BMP180;56766;52.260;20.746;2024-03-02T04:23:39;100022.60;;;5.60
69545;BMP180;56766;52.260;20.746;2024-03-02T04:26:05;100018.20;;;5.60
69545;BMP180;56766;52.260;20.746;2024-03-02T04:28:32;100018.60;;;5.60
69545;BMP180;56766;52.260;20.746;2024-03-02T04:30:59;100016.00;;;5.60
69545;BMP180;56766;52.260;20.746;2024-03-02T04:33:26;100015.00;;;5.62
69545;BMP180;56766;52.260;20.746;2024-03-02T04:35:52;100025.00;;;5.60
69545;BMP180;56766;52.260;20.746;2024-03-02T04:38:19;100024.80;;;5.60
69545;BMP180;56766;52.260;20.746;2024-03-02T04:40:46;100030.40;;;5.60
69545;BMP180;56766;52.260;20.746;2024-03-02T04:43:13;100023.40;;;5.60
69545;BMP180;56766;52.260;20.746;2024-03-02T04:45:42;100012.00;;;5.60
69545;BMP180;56766;52.260;20.746;2024-03-02T04:48:09;100020.60;;;5.60
69545;BMP180;56766;52.260;20.746;2024-03-02T04:50:36;100023.20;;;5.60
69545;BMP180;56766;52.260;20.746;2024-03-02T04:53:03;100019.20;;;5.52
69545;BMP180;56766;52.260;20.746;2024-03-02T04:55:29;100027.00;;;5.50
69545;BMP180;56766;52.260;20.746;2024-03-02T04:58:02;100020.00;;;5.50
69545;BMP180;56766;52.260;20.746;2024-03-02T05:00:29;100016.80;;;5.46
69545;BMP180;56766;52.260;20.746;2024-03-02T05:02:56;100022.20;;;5.40
69545;BMP180;56766;52.260;20.746;2024-03-02T05:05:23;100017.60;;;5.40
69545;BMP180;56766;52.260;20.746;2024-03-02T05:07:50;100020.20;;;5.40
69545;BMP180;56766;52.260;20.746;2024-03-02T05:10:16;100020.20;;;5.38
69545;BMP180;56766;52.260;20.746;2024-03-02T05:12:43;100022.60;;;5.30
69545;BMP180;56766;52.260;20.746;2024-03-02T05:15:12;100025.20;;;5.30
69545;BMP180;56766;52.260;20.746;2024-03-02T05:17:43;100030.40;;;5.30
69545;BMP180;56766;52.260;20.746;2024-03-02T05:20:10;100033.00;;;5.30
69545;BMP180;56766;52.260;20.746;2024-03-02T05:22:37;100040.00;;;5.30
69545;BMP180;56766;52.260;20.746;2024-03-02T05:25:06;100033.40;;;5.30
69545;BMP180;56766;52.260;20.746;2024-03-02T05:27:33;100035.80;;;5.28
69545;BMP180;56766;52.260;20.746;2024-03-02T05:30:01;100043.80;;;5.26
69545;BMP180;56766;52.260;20.746;2024-03-02T05:32:28;100048.00;;;5.26
69545;BMP180;56766;52.260;20.746;2024-03-02T05:34:54;100049.80;;;5.22
69545;BMP180;56766;52.260;20.746;2024-03-02T05:37:21;100043.40;;;5.22
69545;BMP180;56766;52.260;20.746;2024-03-02T05:39:48;100050.80;;;5.20
69545;BMP180;56766;52.260;20.746;2024-03-02T05:42:15;100050.80;;;5.28
69545;BMP180;56766;52.260;20.746;2024-03-02T05:44:43;100054.80;;;5.30
69545;BMP180;56766;52.260;20.746;2024-03-02T05:47:09;100051.40;;;5.30
69545;BMP180;56766;52.260;20.746;2024-03-02T05:49:36;100059.20;;;5.30
69545;BMP180;56766;52.260;20.746;2024-03-02T05:52:03;100067.60;;;5.30
69545;BMP180;56766;52.260;20.746;2024-03-02T05:54:30;100062.20;;;5.30
69545;BMP180;56766;52.260;20.746;2024-03-02T05:56:56;100058.80;;;5.30
69545;BMP180;56766;52.260;20.746;2024-03-02T05:59:23;100073.60;;;5.38
69545;BMP180;56766;52.260;20.746;2024-03-02T06:01:50;100081.00;;;5.40
69545;BMP180;56766;52.260;20.746;2024-03-02T06:04:19;100078.20;;;5.40
69545;BMP180;56766;52.260;20.746;2024-03-02T06:06:46;100080.40;;;5.40
69545;BMP180;56766;52.260;20.746;2024-03-02T06:09:13;100085.20;;;5.46
69545;BMP180;56766;52.260;20.746;2024-03-02T06:11:40;100078.60;;;5.50
69545;BMP180;56766;52.260;20.746;2024-03-02T06:14:09;100076.60;;;5.50
69545;BMP180;56766;52.260;20.746;2024-03-02T06:16:35;100074.20;;;5.50
69545;BMP180;56766;52.260;20.746;2024-03-02T06:19:02;100085.00;;;5.60
69545;BMP180;56766;52.260;20.746;2024-03-02T06:21:29;100077.40;;;5.60
69545;BMP180;56766;52.260;20.746;2024-03-02T06:23:56;100086.00;;;5.60
69545;BMP180;56766;52.260;20.746;2024-03-02T06:26:23;100089.80;;;5.70
69545;BMP180;56766;52.260;20.746;2024-03-02T06:28:50;100091.60;;;5.70
69545;BMP180;56766;52.260;20.746;2024-03-02T06:31:17;100091.80;;;5.70
69545;BMP180;56766;52.260;20.746;2024-03-02T06:33:43;100084.20;;;5.74
69545;BMP180;56766;52.260;20.746;2024-03-02T06:36:10;100083.80;;;5.80
69545;BMP180;56766;52.260;20.746;2024-03-02T06:38:38;100084.20;;;5.80
69545;BMP180;56766;52.260;20.746;2024-03-02T06:41:07;100085.00;;;5.90
69545;BMP180;56766;52.260;20.746;2024-03-02T06:43:34;100090.80;;;5.90
69545;BMP180;56766;52.260;20.746;2024-03-02T06:46:00;100100.80;;;5.92
69545;BMP180;56766;52.260;20.746;2024-03-02T06:48:28;100098.20;;;6.00
69545;BMP180;56766;52.260;20.746;2024-03-02T06:50:56;100097.20;;;6.00
69545;BMP180;56766;52.260;20.746;2024-03-02T06:53:24;100099.60;;;6.10
69545;BMP180;56766;52.260;20.746;2024-03-02T06:55:51;100094.40;;;6.10
69545;BMP180;56766;52.260;20.746;2024-03-02T06:58:18;100097.80;;;6.20
69545;BMP180;56766;52.260;20.746;2024-03-02T07:00:44;100099.40;;;6.20
69545;BMP180;56766;52.260;20.746;2024-03-02T07:03:11;100102.40;;;6.30
69545;BMP180;56766;52.260;20.746;2024-03-02T07:05:39;100086.60;;;6.40
69545;BMP180;56766;52.260;20.746;2024-03-02T07:08:06;100095.80;;;6.40
69545;BMP180;56766;52.260;20.746;2024-03-02T07:10:33;100096.40;;;6.50
69545;BMP180;56766;52.260;20.746;2024-03-02T07:12:59;100092.80;;;6.50
69545;BMP180;56766;52.260;20.746;2024-03-02T07:15:26;100097.80;;;6.60
69545;BMP180;56766;52.260;20.746;2024-03-02T07:17:53;100096.00;;;6.66
69545;BMP180;56766;52.260;20.746;2024-03-02T07:20:20;100099.40;;;6.70
69545;BMP180;56766;52.260;20.746;2024-03-02T07:22:47;100103.00;;;6.80
69545;BMP180;56766;52.260;20.746;2024-03-02T07:25:14;100101.60;;;6.80
69545;BMP180;56766;52.260;20.746;2024-03-02T07:27:40;100109.80;;;6.88
69545;BMP180;56766;52.260;20.746;2024-03-02T07:30:08;100106.20;;;6.90
69545;BMP180;56766;52.260;20.746;2024-03-02T07:32:34;100102.20;;;7.00
69545;BMP180;56766;52.260;20.746;2024-03-02T07:35:01;100104.60;;;7.10
69545;BMP180;56766;52.260;20.746;2024-03-02T07:37:30;100111.60;;;7.10
69545;BMP180;56766;52.260;20.746;2024-03-02T07:39:58;100108.80;;;7.18
69545;BMP180;56766;52.260;20.746;2024-03-02T07:42:24;100108.60;;;7.20
69545;BMP180;56766;52.260;20.746;2024-03-02T07:44:51;100110.00;;;7.20
69545;BMP180;56766;52.260;20.746;2024-03-02T07:47:18;100108.20;;;7.20
69545;BMP180;56766;52.260;20.746;2024-03-02T07:49:44;100108.40;;;7.22
69545;BMP180;56766;52.260;20.746;2024-03-02T07:52:12;100113.00;;;7.30
69545;BMP180;56766;52.260;20.746;2024-03-02T07:54:39;100113.00;;;7.30
69545;BMP180;56766;52.260;20.746;2024-03-02T07:57:06;100121.40;;;7.30
69545;BMP180;56766;52.260;20.746;2024-03-02T07:59:32;100117.80;;;7.30
69545;BMP180;56766;52.260;20.746;2024-03-02T08:01:59;100129.40;;;7.30
69545;BMP180;56766;52.260;20.746;2024-03-02T08:04:27;100133.60;;;7.28
69545;BMP180;56766;52.260;20.746;2024-03-02T08:06:54;100135.00;;;7.22
69545;BMP180;56766;52.260;20.746;2024-03-02T08:09:21;100132.60;;;7.26
69545;BMP180;56766;52.260;20.746;2024-03-02T08:11:47;100128.80;;;7.24
69545;BMP180;56766;52.260;20.746;2024-03-02T08:14:14;100136.00;;;7.30
69545;BMP180;56766;52.260;20.746;2024-03-02T08:16:41;100131.60;;;7.26
69545;BMP180;56766;52.260;20.746;2024-03-02T08:19:08;100135.00;;;7.24
69545;BMP180;56766;52.260;20.746;2024-03-02T08:21:35;100132.60;;;7.20
69545;BMP180;56766;52.260;20.746;2024-03-02T08:24:03;100126.60;;;7.20
69545;BMP180;56766;52.260;20.746;2024-03-02T08:26:30;100121.60;;;7.20
69545;BMP180;56766;52.260;20.746;2024-03-02T08:28:59;100122.20;;;7.20
69545;BMP180;56766;52.260;20.746;2024-03-02T08:31:28;100118.00;;;7.20
69545;BMP180;56766;52.260;20.746;2024-03-02T08:33:54;100121.40;;;7.20
69545;BMP180;56766;52.260;20.746;2024-03-02T08:36:21;100123.20;;;7.20
69545;BMP180;56766;52.260;20.746;2024-03-02T08:38:51;100132.60;;;7.22
69545;BMP180;56766;52.260;20.746;2024-03-02T08:41:18;100139.00;;;7.30
69545;BMP180;56766;52.260;20.746;2024-03-02T08:43:45;100136.60;;;7.30
69545;BMP180;56766;52.260;20.746;2024-03-02T08:46:13;100138.00;;;7.32
69545;BMP180;56766;52.260;20.746;2024-03-02T08:48:40;100137.60;;;7.40
69545;BMP180;56766;52.260;20.746;2024-03-02T08:51:06;100139.40;;;7.40
69545;BMP180;56766;52.260;20.746;2024-03-02T08:53:34;100142.00;;;7.40
69545;BMP180;56766;52.260;20.746;2024-03-02T08:56:01;100141.40;;;7.40
69545;BMP180;56766;52.260;20.746;2024-03-02T08:58:28;100141.20;;;7.40
69545;BMP180;56766;52.260;20.746;2024-03-02T09:00:54;100144.20;;;7.50
69545;BMP180;56766;52.260;20.746;2024-03-02T09:03:21;100141.40;;;7.50
69545;BMP180;56766;52.260;20.746;2024-03-02T09:05:48;100134.00;;;7.50
69545;BMP180;56766;52.260;20.746;2024-03-02T09:08:15;100132.20;;;7.54
69545;BMP180;56766;52.260;20.746;2024-03-02T09:10:41;100136.60;;;7.60
69545;BMP180;56766;52.260;20.746;2024-03-02T09:13:08;100139.00;;;7.60
69545;BMP180;56766;52.260;20.746;2024-03-02T09:15:35;100135.00;;;7.60
69545;BMP180;56766;52.260;20.746;2024-03-02T09:18:04;100133.20;;;7.64
69545;BMP180;56766;52.260;20.746;2024-03-02T09:20:31;100134.80;;;7.70
69545;BMP180;56766;52.260;20.746;2024-03-02T09:22:57;100137.60;;;7.80
69545;BMP180;56766;52.260;20.746;2024-03-02T09:25:24;100133.40;;;7.86
69545;BMP180;56766;52.260;20.746;2024-03-02T09:27:52;100131.00;;;8.00
69545;BMP180;56766;52.260;20.746;2024-03-02T09:30:18;100135.40;;;8.10
69545;BMP180;56766;52.260;20.746;2024-03-02T09:32:45;100129.60;;;8.30
69545;BMP180;56766;52.260;20.746;2024-03-02T09:35:12;100138.60;;;8.40
69545;BMP180;56766;52.260;20.746;2024-03-02T09:37:38;100136.80;;;8.50
69545;BMP180;56766;52.260;20.746;2024-03-02T09:40:06;100134.00;;;8.60
69545;BMP180;56766;52.260;20.746;2024-03-02T09:42:33;100140.80;;;8.60
69545;BMP180;56766;52.260;20.746;2024-03-02T09:45:00;100138.80;;;8.70
69545;BMP180;56766;52.260;20.746;2024-03-02T09:47:27;100140.60;;;8.70
69545;BMP180;56766;52.260;20.746;2024-03-02T09:49:54;100139.00;;;8.70
69545;BMP180;56766;52.260;20.746;2024-03-02T09:52:23;100133.80;;;8.70
69545;BMP180;56766;52.260;20.746;2024-03-02T09:54:50;100133.20;;;8.70
69545;BMP180;56766;52.260;20.746;2024-03-02T09:57:16;100136.00;;;8.70
69545;BMP180;56766;52.260;20.746;2024-03-02T09:59:43;100137.80;;;8.78
69545;BMP180;56766;52.260;20.746;2024-03-02T10:02:11;100139.20;;;8.80
69545;BMP180;56766;52.260;20.746;2024-03-02T10:04:38;100137.00;;;8.80
69545;BMP180;56766;52.260;20.746;2024-03-02T10:07:14;100137.60;;;8.80
69545;BMP180;56766;52.260;20.746;2024-03-02T10:09:43;100133.20;;;8.84
69545;BMP180;56766;52.260;20.746;2024-03-02T10:12:13;100131.60;;;8.90
69545;BMP180;56766;52.260;20.746;2024-03-02T10:14:41;100129.40;;;8.94
69545;BMP180;56766;52.260;20.746;2024-03-02T10:17:11;100131.20;;;9.00
69545;BMP180;56766;52.260;20.746;2024-03-02T10:19:40;100121.00;;;9.10
69545;BMP180;56766;52.260;20.746;2024-03-02T10:22:09;100121.60;;;9.10
69545;BMP180;56766;52.260;20.746;2024-03-02T10:24:42;100120.40;;;9.20
69545;BMP180;56766;52.260;20.746;2024-03-02T10:27:22;100120.00;;;9.30
69545;BMP180;56766;52.260;20.746;2024-03-02T10:29:49;100116.40;;;9.40
69545;BMP180;56766;52.260;20.746;2024-03-02T10:32:16;100117.80;;;9.60
69545;BMP180;56766;52.260;20.746;2024-03-02T10:34:46;100116.20;;;9.70
69545;BMP180;56766;52.260;20.746;2024-03-02T10:37:15;100112.20;;;9.98
69545;BMP180;56766;52.260;20.746;2024-03-02T10:39:42;100110.60;;;10.20
69545;BMP180;56766;52.260;20.746;2024-03-02T10:42:09;100112.60;;;10.30
69545;BMP180;56766;52.260;20.746;2024-03-02T10:44:36;100116.40;;;10.50
69545;BMP180;56766;52.260;20.746;2024-03-02T10:47:05;100114.60;;;10.60
69545;BMP180;56766;52.260;20.746;2024-03-02T10:49:33;100111.80;;;10.60
69545;BMP180;56766;52.260;20.746;2024-03-02T10:52:00;100112.60;;;10.70
69545;BMP180;56766;52.260;20.746;2024-03-02T10:54:27;100112.80;;;10.70
69545;BMP180;56766;52.260;20.746;2024-03-02T10:57:04;100112.20;;;10.70
69545;BMP180;56766;52.260;20.746;2024-03-02T10:59:36;100105.60;;;10.80
69545;BMP180;56766;52.260;20.746;2024-03-02T11:02:10;100104.40;;;10.88
69545;BMP180;56766;52.260;20.746;2024-03-02T11:04:41;100097.00;;;10.98
69545;BMP180;56766;52.260;20.746;2024-03-02T11:07:10;100092.80;;;11.00
69545;BMP180;56766;52.260;20.746;2024-03-02T11:09:42;100094.40;;;11.10
69545;BMP180;56766;52.260;20.746;2024-03-02T11:12:28;100094.80;;;11.20
69545;BMP180;56766;52.260;20.746;2024-03-02T11:14:56;100091.80;;;11.20
69545;BMP180;56766;52.260;20.746;2024-03-02T11:17:25;100090.60;;;11.20
69545;BMP180;56766;52.260;20.746;2024-03-02T11:19:53;100088.40;;;11.20
69545;BMP180;56766;52.260;20.746;2024-03-02T11:22:21;100080.60;;;11.20
69545;BMP180;56766;52.260;20.746;2024-03-02T11:24:50;100081.20;;;11.20
69545;BMP180;56766;52.260;20.746;2024-03-02T11:33:00;100067.80;;;11.16
69545;BMP180;56766;52.260;20.746;2024-03-02T11:35:28;100065.60;;;11.10
69545;BMP180;56766;52.260;20.746;2024-03-02T11:37:55;100070.80;;;11.10
69545;BMP180;56766;52.260;20.746;2024-03-02T11:40:25;100070.80;;;11.10
69545;BMP180;56766;52.260;20.746;2024-03-02T11:42:52;100073.60;;;11.10
69545;BMP180;56766;52.260;20.746;2024-03-02T11:45:24;100068.60;;;11.18
69545;BMP180;56766;52.260;20.746;2024-03-02T11:47:55;100057.80;;;11.20
69545;BMP180;56766;52.260;20.746;2024-03-02T11:50:46;100054.60;;;11.30
69545;BMP180;56766;52.260;20.746;2024-03-02T11:53:14;100058.40;;;11.30
69545;BMP180;56766;52.260;20.746;2024-03-02T11:55:41;100063.60;;;11.36
69545;BMP180;56766;52.260;20.746;2024-03-02T11:58:14;100067.60;;;11.30
69545;BMP180;56766;52.260;20.746;2024-03-02T12:00:43;100074.40;;;11.20
69545;BMP180;56766;52.260;20.746;2024-03-02T12:03:14;100067.80;;;11.20
69545;BMP180;56766;52.260;20.746;2024-03-02T12:05:42;100071.80;;;11.20
69545;BMP180;56766;52.260;20.746;2024-03-02T12:08:11;100070.20;;;11.20
69545;BMP180;56766;52.260;20.746;2024-03-02T12:10:39;100062.20;;;11.20
69545;BMP180;56766;52.260;20.746;2024-03-02T12:13:07;100063.20;;;11.20
69545;BMP180;56766;52.260;20.746;2024-03-02T12:15:38;100065.20;;;11.28
69545;BMP180;56766;52.260;20.746;2024-03-02T12:18:07;100063.00;;;11.30
69545;BMP180;56766;52.260;20.746;2024-03-02T12:20:34;100069.60;;;11.40
69545;BMP180;56766;52.260;20.746;2024-03-02T12:23:03;100068.00;;;11.50
69545;BMP180;56766;52.260;20.746;2024-03-02T12:25:32;100066.40;;;11.60
69545;BMP180;56766;52.260;20.746;2024-03-02T12:28:03;100063.00;;;11.70
69545;BMP180;56766;52.260;20.746;2024-03-02T12:30:35;100062.60;;;11.80
69545;BMP180;56766;52.260;20.746;2024-03-02T12:33:02;100062.20;;;11.96
69545;BMP180;56766;52.260;20.746;2024-03-02T12:35:30;100063.80;;;12.10
69545;BMP180;56766;52.260;20.746;2024-03-02T12:37:56;100060.80;;;12.20
69545;BMP180;56766;52.260;20.746;2024-03-02T12:40:23;100054.40;;;12.30
69545;BMP180;56766;52.260;20.746;2024-03-02T12:42:51;100056.20;;;12.40
69545;BMP180;56766;52.260;20.746;2024-03-02T12:45:18;100057.00;;;12.40
69545;BMP180;56766;52.260;20.746;2024-03-02T12:47:51;100061.60;;;12.50
69545;BMP180;56766;52.260;20.746;2024-03-02T12:50:18;100059.20;;;12.50
69545;BMP180;56766;52.260;20.746;2024-03-02T12:52:53;100053.80;;;12.40
69545;BMP180;56766;52.260;20.746;2024-03-02T12:55:22;100063.60;;;12.36
69545;BMP180;56766;52.260;20.746;2024-03-02T12:57:51;100062.60;;;12.30
69545;BMP180;56766;52.260;20.746;2024-03-02T13:00:20;100062.80;;;12.20
69545;BMP180;56766;52.260;20.746;2024-03-02T13:02:47;100061.20;;;12.18
69545;BMP180;56766;52.260;20.746;2024-03-02T13:05:15;100053.80;;;12.10
69545;BMP180;56766;52.260;20.746;2024-03-02T13:07:42;100062.00;;;12.00
69545;BMP180;56766;52.260;20.746;2024-03-02T13:10:09;100065.80;;;12.00
69545;BMP180;56766;52.260;20.746;2024-03-02T13:12:37;100057.40;;;12.04
69545;BMP180;56766;52.260;20.746;2024-03-02T13:15:04;100061.40;;;12.10
69545;BMP180;56766;52.260;20.746;2024-03-02T13:17:35;100058.40;;;12.10
69545;BMP180;56766;52.260;20.746;2024-03-02T13:20:03;100059.40;;;12.10
69545;BMP180;56766;52.260;20.746;2024-03-02T13:22:30;100056.60;;;12.10
69545;BMP180;56766;52.260;20.746;2024-03-02T13:24:57;100057.20;;;12.10
69545;BMP180;56766;52.260;20.746;2024-03-02T13:27:26;100056.00;;;12.12
69545;BMP180;56766;52.260;20.746;2024-03-02T13:29:54;100057.40;;;12.10
69545;BMP180;56766;52.260;20.746;2024-03-02T13:32:20;100055.60;;;12.10
69545;BMP180;56766;52.260;20.746;2024-03-02T13:34:50;100056.20;;;12.10
69545;BMP180;56766;52.260;20.746;2024-03-02T13:37:17;100054.60;;;12.00
69545;BMP180;56766;52.260;20.746;2024-03-02T13:39:44;100054.20;;;12.00
69545;BMP180;56766;52.260;20.746;2024-03-02T13:42:12;100052.00;;;11.90
69545;BMP180;56766;52.260;20.746;2024-03-02T13:44:43;100055.40;;;11.90
69545;BMP180;56766;52.260;20.746;2024-03-02T13:47:13;100053.20;;;11.90
69545;BMP180;56766;52.260;20.746;2024-03-02T13:49:40;100058.60;;;11.90
69545;BMP180;56766;52.260;20.746;2024-03-02T13:52:10;100057.40;;;11.88
69545;BMP180;56766;52.260;20.746;2024-03-02T13:54:48;100059.00;;;11.80
69545;BMP180;56766;52.260;20.746;2024-03-02T13:57:15;100059.80;;;11.80
69545;BMP180;56766;52.260;20.746;2024-03-02T13:59:44;100055.00;;;11.70
69545;BMP180;56766;52.260;20.746;2024-03-02T14:02:12;100054.40;;;11.70
69545;BMP180;56766;52.260;20.746;2024-03-02T14:04:39;100055.00;;;11.60
69545;BMP180;56766;52.260;20.746;2024-03-02T14:07:06;100059.40;;;11.58